Milltimber, United Kingdom
Current Conditions -  °F | °C
As of 5:20 PM on Saturday 20 Dec 2014 (Local Time) from EGPD Reporting Station
Few Clouds Few Clouds  
Wind Chill: 36°   Ceiling: Unl
Heat Index: 41°   Visibility: 6mi
Dew Point: 34°   Wind: 8mph
Humidity: 76%   Direction: 280°W
Pressure: 30.09"   Gusts: NA
Location:  57.1°N, 2.24°W
Report Text: EGPD 201720Z 28007KT 9999 FEW045 05/01 Q1019 NOSIG
Loading
Personal Weather Stations






























Interactive Weather Map New forecast layout! Learn more

10-Day Weather Forecast

Advertisements
Track Severe Weather on mobile